Time;durP1;ratioP1;P1;durP2;ratioP2;P2;SDS_P1;SDS_P2;PMS_P1;PMS_P2;Temp;Humidity;BMP_temperature;BMP_pressure;BME280_temperature;BME280_humidity;BME280_pressure;Samples;Min_cycle;Max_cycle;Signal;HPM_P1;HPM_P2
2024/04/04 00:00:44;;;;;;;6.80;1.70;;;;;;;10.94;57.60;98954.79;105916;1253;72515;-78
2024/04/04 00:03:11;;;;;;;3.30;1.50;;;;;;;10.95;57.69;98953.83;105814;1259;69277;-80
2024/04/04 00:05:39;;;;;;;3.20;1.90;;;;;;;10.95;57.85;98955.77;105926;1253;72688;-79
2024/04/04 00:08:06;;;;;;;2.50;1.50;;;;;;;10.95;57.98;98963.75;106033;1252;60379;-78
2024/04/04 00:10:33;;;;;;;4.20;1.50;;;;;;;10.95;57.86;98962.98;105998;1253;60485;-79
2024/04/04 00:13:01;;;;;;;2.70;1.50;;;;;;;10.95;57.99;98963.52;106107;1253;73827;-81
2024/04/04 00:15:28;;;;;;;3.40;1.60;;;;;;;10.95;57.91;98961.18;106242;1253;71233;-77
2024/04/04 00:17:56;;;;;;;3.50;1.50;;;;;;;10.96;58.00;98962.33;107082;1252;73045;-81
2024/04/04 00:20:23;;;;;;;3.30;1.30;;;;;;;10.97;57.96;98956.58;107389;1252;60341;-78
2024/04/04 00:22:51;;;;;;;4.40;1.60;;;;;;;10.95;57.87;98955.42;107647;1252;61990;-78
2024/04/04 00:25:18;;;;;;;3.00;1.60;;;;;;;10.93;57.86;98957.98;107681;1253;72767;-78
2024/04/04 00:27:46;;;;;;;2.10;1.50;;;;;;;10.89;58.06;98955.60;107892;1252;69047;-79
2024/04/04 00:30:13;;;;;;;4.70;1.80;;;;;;;10.85;58.24;98955.25;108617;1252;74081;-76
2024/04/04 00:32:41;;;;;;;3.50;1.70;;;;;;;10.81;58.26;98951.27;108407;1253;60738;-78
2024/04/04 00:35:08;;;;;;;3.00;1.50;;;;;;;10.77;58.24;98949.80;108680;1252;59314;-80
2024/04/04 00:37:36;;;;;;;2.60;1.70;;;;;;;10.73;58.51;98952.25;108706;1253;72736;-79
2024/04/04 00:40:05;;;;;;;2.60;1.50;;;;;;;10.68;58.58;98952.29;107389;1253;68982;-80
2024/04/04 00:42:32;;;;;;;3.20;1.60;;;;;;;10.63;58.80;98953.74;108005;1253;75030;-77
2024/04/04 00:45:00;;;;;;;3.20;1.30;;;;;;;10.59;59.03;98954.31;109069;1256;60432;-77
2024/04/04 00:47:28;;;;;;;4.40;1.90;;;;;;;10.55;59.23;98955.48;108847;1253;61106;-77
2024/04/04 00:49:55;;;;;;;3.80;1.70;;;;;;;10.54;59.18;98959.04;108671;1253;71535;-77
2024/04/04 00:52:23;;;;;;;2.40;1.60;;;;;;;10.53;59.43;98951.91;107741;1254;69360;-76
2024/04/04 00:54:50;;;;;;;3.70;1.80;;;;;;;10.51;59.45;98959.38;107930;1252;71409;-77
2024/04/04 00:57:17;;;;;;;3.30;1.70;;;;;;;10.49;59.48;98950.96;108016;1251;60205;-76
2024/04/04 00:59:45;;;;;;;3.20;1.50;;;;;;;10.45;59.77;98957.25;106786;1253;60433;-75
2024/04/04 01:02:12;;;;;;;5.00;2.20;;;;;;;10.41;60.07;98955.41;106634;1258;73916;-75
2024/04/04 01:04:40;;;;;;;4.80;3.50;;;;;;;10.36;59.95;98954.79;107649;1252;68965;-76
2024/04/04 01:07:07;;;;;;;3.50;2.10;;;;;;;10.32;60.33;98956.49;106420;1251;75151;-77
2024/04/04 01:09:34;;;;;;;4.90;2.20;;;;;;;10.29;60.50;98963.66;106161;1256;60507;-77
2024/04/04 01:12:02;;;;;;;2.40;1.70;;;;;;;10.23;60.88;98960.58;106206;1256;60407;-78
2024/04/04 01:14:30;;;;;;;4.00;1.70;;;;;;;10.18;61.19;98963.52;106284;1257;73888;-77
2024/04/04 01:16:57;;;;;;;3.10;1.80;;;;;;;10.13;60.95;98965.00;106197;1251;70394;-78
2024/04/04 01:19:25;;;;;;;4.00;2.00;;;;;;;10.08;61.21;98966.47;106147;1253;72686;-77
2024/04/04 01:21:53;;;;;;;3.70;1.90;;;;;;;10.03;61.61;98964.04;106310;1253;60564;-79
2024/04/04 01:24:20;;;;;;;3.10;1.80;;;;;;;9.99;61.82;98974.23;109037;1251;59989;-78
2024/04/04 01:26:47;;;;;;;2.50;1.90;;;;;;;9.95;61.78;98967.77;108270;1251;72595;-77
2024/04/04 01:29:15;;;;;;;4.30;2.20;;;;;;;9.92;62.24;98970.34;106423;1259;68775;-77
2024/04/04 01:31:42;;;;;;;3.70;1.60;;;;;;;9.87;62.23;98974.27;106436;1252;71379;-78
2024/04/04 01:34:09;;;;;;;4.10;2.00;;;;;;;9.80;62.79;98981.73;107622;1253;60388;-79
2024/04/04 01:36:37;;;;;;;3.00;2.10;;;;;;;9.78;62.70;98984.39;106237;1251;60578;-79
2024/04/04 01:39:04;;;;;;;3.20;2.30;;;;;;;9.73;62.63;98978.56;106257;1256;72636;-79
2024/04/04 01:41:31;;;;;;;4.00;1.80;;;;;;;9.70;63.07;98986.36;106273;1251;70152;-76
2024/04/04 01:43:59;;;;;;;5.00;2.00;;;;;;;9.65;63.85;98990.30;106520;1251;72474;-76
2024/04/04 01:46:26;;;;;;;3.20;1.80;;;;;;;9.59;64.73;98991.89;107159;1257;60989;-76
2024/04/04 01:48:53;;;;;;;2.60;1.90;;;;;;;9.53;65.35;98995.63;107084;1251;60238;-79
2024/04/04 01:51:21;;;;;;;2.10;1.50;;;;;;;9.48;65.96;99007.50;106091;1258;74314;-78
2024/04/04 01:53:48;;;;;;;3.30;1.50;;;;;;;9.50;66.54;98998.23;106157;1258;70347;-79
2024/04/04 01:56:15;;;;;;;1.90;1.40;;;;;;;9.59;67.01;99000.90;106221;1257;72522;-79
2024/04/04 01:58:42;;;;;;;2.10;1.80;;;;;;;9.59;67.45;99002.66;106121;1251;60406;-79
2024/04/04 02:01:10;;;;;;;2.70;1.80;;;;;;;9.55;67.63;99002.19;106183;1251;60572;-80
2024/04/04 02:03:37;;;;;;;3.80;1.80;;;;;;;9.53;67.75;99009.21;106276;1256;73878;-78
2024/04/04 02:06:05;;;;;;;2.80;1.70;;;;;;;9.50;68.08;99009.90;106521;1257;69256;-79
2024/04/04 02:08:32;;;;;;;2.80;1.70;;;;;;;9.44;68.45;99010.50;107655;1251;71048;-76
2024/04/04 02:10:59;;;;;;;4.60;1.90;;;;;;;9.38;68.60;99015.17;106615;1254;60546;-78
2024/04/04 02:13:27;;;;;;;2.20;1.80;;;;;;;9.32;68.91;99018.38;106149;1257;60313;-78
2024/04/04 02:15:54;;;;;;;2.70;1.80;;;;;;;9.24;68.83;99017.30;106149;1251;72827;-75
2024/04/04 02:18:23;;;;;;;3.80;1.70;;;;;;;9.20;68.84;99020.81;107589;1251;70357;-75
2024/04/04 02:20:51;;;;;;;3.60;1.90;;;;;;;9.23;68.57;99024.79;108316;1257;71485;-74
2024/04/04 02:23:18;;;;;;;3.40;2.20;;;;;;;9.24;68.56;99028.42;107136;1254;61327;-78
2024/04/04 02:25:45;;;;;;;2.90;2.00;;;;;;;9.18;68.28;99035.46;106920;1252;61413;-80
2024/04/04 02:28:13;;;;;;;3.30;2.00;;;;;;;9.13;68.38;99038.02;108082;1253;73385;-77
2024/04/04 02:30:40;;;;;;;3.20;2.00;;;;;;;9.08;68.37;99044.73;106474;1251;70331;-77
2024/04/04 02:33:08;;;;;;;4.50;2.40;;;;;;;9.02;68.01;99043.14;106580;1253;72463;-74
2024/04/04 02:35:35;;;;;;;2.30;1.70;;;;;;;8.97;68.09;99043.02;106338;1256;61221;-78
2024/04/04 02:38:03;;;;;;;2.50;2.10;;;;;;;8.92;67.72;99046.02;106067;1253;61301;-75
2024/04/04 02:40:30;;;;;;;6.50;2.00;;;;;;;8.83;66.88;99048.46;105967;1252;74407;-76
2024/04/04 02:42:58;;;;;;;2.70;1.90;;;;;;;8.76;66.39;99052.13;105970;1257;68736;-76
2024/04/04 02:45:27;;;;;;;3.80;1.70;;;;;;;8.66;66.06;99059.36;106136;1256;72770;-77
2024/04/04 02:47:54;;;;;;;3.40;2.10;;;;;;;8.58;66.17;99068.23;106163;1251;61272;-77
2024/04/04 02:50:21;;;;;;;3.50;1.60;;;;;;;8.51;65.81;99070.98;106187;1252;61899;-76
2024/04/04 02:52:48;;;;;;;3.00;1.50;;;;;;;8.45;65.71;99082.15;106143;1254;73630;-76
2024/04/04 02:55:16;;;;;;;2.20;1.50;;;;;;;8.40;65.40;99088.75;106114;1251;70636;-77
2024/04/04 02:57:43;;;;;;;2.40;1.70;;;;;;;8.35;65.45;99093.19;106040;1251;72562;-76
2024/04/04 03:00:11;;;;;;;1.90;1.40;;;;;;;8.29;65.15;99099.63;106068;1253;61294;-79
2024/04/04 03:02:39;;;;;;;2.60;1.70;;;;;;;8.22;65.12;99102.82;106292;1256;61247;-78
2024/04/04 03:05:07;;;;;;;2.30;1.70;;;;;;;8.17;65.31;99106.10;106168;1257;74902;-79
2024/04/04 03:07:34;;;;;;;2.50;1.50;;;;;;;8.13;65.25;99103.73;106051;1258;68875;-79
2024/04/04 03:10:01;;;;;;;1.60;1.30;;;;;;;8.10;65.28;99111.77;105938;1253;72719;-78
2024/04/04 03:12:28;;;;;;;2.70;1.50;;;;;;;8.06;65.06;99121.40;106481;1256;61227;-78
2024/04/04 03:14:59;;;;;;;2.40;1.60;;;;;;;7.98;64.76;99124.51;109257;1252;59055;-77
2024/04/04 03:17:27;;;;;;;1.90;1.40;;;;;;;7.95;64.27;99126.98;108734;1253;73519;-78
2024/04/04 03:19:54;;;;;;;1.70;1.40;;;;;;;7.94;63.30;99136.45;108015;1251;69159;-76
2024/04/04 03:22:22;;;;;;;2.20;1.10;;;;;;;7.89;62.83;99136.75;106550;1257;71410;-77
2024/04/04 03:24:49;;;;;;;2.30;1.10;;;;;;;7.83;62.76;99139.02;106036;1258;61337;-77
2024/04/04 03:27:17;;;;;;;2.00;1.70;;;;;;;7.78;62.53;99145.25;106207;1257;61164;-75
2024/04/04 03:29:44;;;;;;;2.40;1.30;;;;;;;7.76;62.28;99148.61;106109;1256;72751;-78
2024/04/04 03:32:11;;;;;;;1.10;1.00;;;;;;;7.74;61.84;99152.67;106175;1253;69315;-80
2024/04/04 03:34:39;;;;;;;2.30;1.90;;;;;;;7.73;61.93;99156.64;106052;1260;71479;-80
2024/04/04 03:37:06;;;;;;;1.60;1.20;;;;;;;7.74;61.29;99156.27;106280;1253;61419;-80
2024/04/04 03:39:33;;;;;;;1.40;1.20;;;;;;;7.72;61.10;99155.77;107669;1253;61428;-79
2024/04/04 03:42:01;;;;;;;1.60;1.00;;;;;;;7.68;60.72;99156.27;107773;1256;74654;-78
2024/04/04 03:44:28;;;;;;;1.90;1.00;;;;;;;7.67;60.78;99158.55;106639;1253;71378;-77
2024/04/04 03:46:56;;;;;;;1.40;1.10;;;;;;;7.64;60.51;99160.89;106391;1253;71366;-79
2024/04/04 03:49:23;;;;;;;1.70;1.30;;;;;;;7.62;60.30;99165.09;106218;1252;61409;-76
2024/04/04 03:51:50;;;;;;;2.90;1.30;;;;;;;7.57;60.09;99165.93;106124;1253;61260;-78
2024/04/04 03:54:18;;;;;;;1.80;1.10;;;;;;;7.51;60.19;99172.37;106259;1252;76943;-79
2024/04/04 03:56:45;;;;;;;1.50;1.30;;;;;;;7.47;60.15;99175.79;107250;1256;69019;-79
2024/04/04 03:59:26;;;;;;;1.70;1.20;;;;;;;7.40;60.25;99175.81;107456;1251;72508;-77
2024/04/04 04:01:57;;;;;;;1.50;1.30;;;;;;;7.36;60.31;99178.02;106670;1257;61230;-78
2024/04/04 04:04:25;;;;;;;1.70;1.10;;;;;;;7.33;60.28;99181.70;106052;1252;61133;-77
2024/04/04 04:06:52;;;;;;;1.80;1.20;;;;;;;7.28;60.41;99184.39;106093;1258;74703;-77
2024/04/04 04:09:19;;;;;;;2.90;1.90;;;;;;;7.27;60.67;99191.91;109027;1251;70723;-78
2024/04/04 04:11:46;;;;;;;1.60;1.30;;;;;;;7.25;60.34;99191.27;109463;1251;71504;-80
2024/04/04 04:14:15;;;;;;;2.30;1.70;;;;;;;7.22;60.60;99193.04;106835;1257;61303;-76
2024/04/04 04:16:43;;;;;;;2.80;1.70;;;;;;;7.20;60.57;99199.63;106331;1253;61291;-76
2024/04/04 04:19:11;;;;;;;2.60;1.30;;;;;;;7.19;60.72;99201.09;106287;1253;74651;-78
2024/04/04 04:21:38;;;;;;;2.90;1.50;;;;;;;7.19;60.76;99205.35;106115;1257;69410;-81
2024/04/04 04:24:06;;;;;;;3.80;2.80;;;;;;;7.19;60.73;99213.41;106114;1253;72012;-81
2024/04/04 04:26:34;;;;;;;4.60;2.00;;;;;;;7.21;60.75;99219.19;106277;1256;61231;-80
2024/04/04 04:29:01;;;;;;;2.40;1.20;;;;;;;7.20;60.63;99220.35;106067;1253;61795;-78
2024/04/04 04:31:30;;;;;;;1.60;1.10;;;;;;;7.17;60.38;99228.42;105989;1252;75694;-79
2024/04/04 04:34:00;;;;;;;1.60;1.10;;;;;;;7.13;60.32;99224.73;105836;1262;69705;-80
2024/04/04 04:36:31;;;;;;;1.60;1.20;;;;;;;7.09;60.43;99230.60;105900;1253;71431;-77
2024/04/04 04:38:59;;;;;;;2.00;1.40;;;;;;;7.05;60.52;99229.98;106213;1254;61653;-77
2024/04/04 04:41:27;;;;;;;1.40;1.20;;;;;;;7.04;60.58;99237.70;106234;1251;61187;-81
2024/04/04 04:43:55;;;;;;;3.00;1.40;;;;;;;7.00;60.50;99238.80;106011;1252;73389;-80
2024/04/04 04:46:23;;;;;;;1.50;1.20;;;;;;;6.97;60.59;99237.66;106022;1256;71506;-80
2024/04/04 04:48:50;;;;;;;4.30;1.30;;;;;;;6.96;60.60;99235.85;107178;1251;72823;-80
2024/04/04 04:51:17;;;;;;;3.00;1.50;;;;;;;6.98;60.82;99242.95;107425;1253;61345;-80
2024/04/04 04:53:45;;;;;;;3.10;1.20;;;;;;;6.99;60.88;99244.38;106290;1257;61321;-81
2024/04/04 04:56:12;;;;;;;1.50;1.20;;;;;;;6.98;60.82;99245.86;106053;1252;74796;-80
2024/04/04 04:58:39;;;;;;;1.60;1.20;;;;;;;6.96;61.06;99243.27;106354;1254;70887;-80
2024/04/04 05:01:10;;;;;;;2.50;1.20;;;;;;;6.94;61.09;99242.80;106369;1254;74916;-80
2024/04/04 05:03:38;;;;;;;3.60;1.50;;;;;;;6.94;60.99;99247.52;108156;1251;61116;-79
2024/04/04 05:06:07;;;;;;;2.20;1.20;;;;;;;6.95;60.85;99252.22;109423;1251;59005;-79
2024/04/04 05:08:34;;;;;;;2.30;1.20;;;;;;;6.92;60.85;99258.50;108310;1257;73410;-80
2024/04/04 05:11:01;;;;;;;3.70;1.40;;;;;;;6.85;60.72;99262.69;106701;1253;71952;-79
2024/04/04 05:13:29;;;;;;;2.80;1.20;;;;;;;6.84;60.81;99267.34;106289;1254;71401;-80
2024/04/04 05:15:56;;;;;;;1.80;1.20;;;;;;;6.85;60.85;99270.08;106429;1251;61433;-79
2024/04/04 05:18:23;;;;;;;1.50;1.00;;;;;;;6.87;60.57;99273.05;106368;1253;61408;-78
2024/04/04 05:20:58;;;;;;;3.90;1.20;;;;;;;6.87;60.23;99270.71;106492;1251;73833;-80
2024/04/04 05:23:26;;;;;;;1.90;1.20;;;;;;;6.87;60.10;99274.11;106533;1254;70431;-80
2024/04/04 05:25:54;;;;;;;3.30;1.40;;;;;;;6.86;59.90;99280.52;106397;1251;71076;-80
2024/04/04 05:28:26;;;;;;;2.00;1.50;;;;;;;6.82;60.01;99282.11;106822;1254;61292;-77
2024/04/04 05:30:54;;;;;;;1.30;1.10;;;;;;;6.81;59.98;99287.41;108424;1256;60126;-79
2024/04/04 05:33:21;;;;;;;1.60;1.00;;;;;;;6.80;60.08;99290.86;107420;1251;73454;-81
2024/04/04 05:35:49;;;;;;;1.80;1.00;;;;;;;6.79;59.97;99299.67;106665;1258;69505;-79
2024/04/04 05:38:16;;;;;;;1.90;1.20;;;;;;;6.77;60.19;99300.43;106631;1255;71082;-79
2024/04/04 05:40:43;;;;;;;3.30;1.10;;;;;;;6.75;60.04;99306.09;106859;1255;61218;-79
2024/04/04 05:43:11;;;;;;;1.10;1.00;;;;;;;6.74;60.11;99307.66;106985;1257;61323;-79
2024/04/04 05:45:38;;;;;;;1.50;1.00;;;;;;;6.72;60.12;99310.77;107358;1253;73474;-79
2024/04/04 05:48:06;;;;;;;1.40;1.00;;;;;;;6.71;60.34;99314.83;107243;1256;70379;-79
2024/04/04 05:50:36;;;;;;;1.50;1.10;;;;;;;6.70;60.24;99312.94;106697;1253;70477;-79
2024/04/04 05:53:03;;;;;;;3.90;1.30;;;;;;;6.72;60.37;99317.90;106480;1253;61253;-81
2024/04/04 05:55:31;;;;;;;1.90;1.10;;;;;;;6.73;60.21;99321.78;107127;1251;61253;-80
2024/04/04 05:57:59;;;;;;;2.00;1.40;;;;;;;6.70;60.34;99324.90;107892;1253;73697;-80
2024/04/04 06:00:26;;;;;;;3.30;1.50;;;;;;;6.73;60.56;99332.37;108530;1251;70890;-79
2024/04/04 06:02:54;;;;;;;3.00;1.70;;;;;;;6.77;60.39;99332.37;108173;1253;71664;-82
2024/04/04 06:05:21;;;;;;;1.40;1.10;;;;;;;6.80;60.36;99333.25;107358;1259;61208;-79
2024/04/04 06:07:49;;;;;;;2.80;1.20;;;;;;;6.83;60.27;99338.23;108111;1253;60525;-79
2024/04/04 06:10:16;;;;;;;1.80;1.20;;;;;;;6.85;60.03;99340.15;106994;1256;75606;-83
2024/04/04 06:12:43;;;;;;;3.60;1.70;;;;;;;6.83;59.97;99344.76;106407;1258;72728;-82
2024/04/04 06:15:11;;;;;;;1.60;1.20;;;;;;;6.81;60.16;99344.40;106191;1256;71734;-84
2024/04/04 06:17:40;;;;;;;1.40;1.20;;;;;;;6.79;60.19;99341.98;106231;1254;61206;-80
2024/04/04 06:20:09;;;;;;;2.10;1.20;;;;;;;6.79;60.03;99352.84;106156;1257;62527;-77
2024/04/04 06:22:36;;;;;;;2.20;1.20;;;;;;;6.78;60.18;99351.38;106433;1256;75168;-79
2024/04/04 06:25:04;;;;;;;2.40;1.10;;;;;;;6.77;60.26;99358.54;106872;1253;68815;-79
2024/04/04 06:27:32;;;;;;;1.40;1.20;;;;;;;6.75;60.12;99355.72;107249;1253;74900;-78
2024/04/04 06:30:00;;;;;;;2.00;1.40;;;;;;;6.75;59.80;99364.34;106756;1251;61103;-77
2024/04/04 06:32:27;;;;;;;1.50;1.20;;;;;;;6.77;59.05;99368.44;106556;1253;61114;-78
2024/04/04 06:34:55;;;;;;;2.30;1.70;;;;;;;6.79;58.87;99370.30;106270;1251;74421;-79
2024/04/04 06:37:22;;;;;;;1.90;1.10;;;;;;;6.86;58.51;99380.50;106132;1257;70365;-78
2024/04/04 06:39:49;;;;;;;2.10;1.50;;;;;;;6.95;57.11;99381.70;106036;1254;75701;-77
2024/04/04 06:42:17;;;;;;;1.40;1.00;;;;;;;7.00;56.75;99385.85;106131;1254;61223;-79
2024/04/04 06:44:44;;;;;;;1.80;1.10;;;;;;;7.05;56.07;99394.49;106348;1251;61285;-78
2024/04/04 06:47:11;;;;;;;1.20;1.10;;;;;;;7.09;55.44;99394.76;108185;1257;73104;-83
2024/04/04 06:49:39;;;;;;;2.60;1.20;;;;;;;7.11;55.10;99396.19;107568;1253;72498;-85
2024/04/04 06:52:06;;;;;;;1.70;1.40;;;;;;;7.13;54.83;99397.27;106865;1253;73671;-83
2024/04/04 06:54:34;;;;;;;1.40;1.30;;;;;;;7.21;54.45;99398.64;108764;1251;61198;-81
2024/04/04 06:57:01;;;;;;;1.50;1.10;;;;;;;7.34;54.15;99406.33;109468;1252;60193;-81
2024/04/04 06:59:28;;;;;;;1.50;1.20;;;;;;;7.45;53.41;99406.98;108885;1253;75294;-83
2024/04/04 07:01:56;;;;;;;2.40;1.40;;;;;;;7.52;52.53;99408.44;109094;1251;70585;-83
2024/04/04 07:04:23;;;;;;;1.10;0.90;;;;;;;7.58;52.41;99406.38;109112;1256;72977;-82
2024/04/04 07:06:51;;;;;;;1.00;0.90;;;;;;;7.70;52.47;99411.52;108450;1259;62239;-83
2024/04/04 07:09:19;;;;;;;2.10;1.30;;;;;;;7.77;52.11;99416.38;108274;1252;61703;-82
2024/04/04 07:11:46;;;;;;;1.20;1.10;;;;;;;7.80;52.11;99418.38;106748;1253;76811;-85
2024/04/04 07:14:13;;;;;;;2.00;1.20;;;;;;;7.81;52.40;99422.38;106871;1251;70869;-84
2024/04/04 07:16:41;;;;;;;2.00;1.20;;;;;;;7.84;52.73;99422.23;106890;1254;71583;-82
2024/04/04 07:19:08;;;;;;;2.10;1.20;;;;;;;7.87;53.12;99427.70;106933;1256;61218;-83
2024/04/04 07:21:36;;;;;;;3.90;1.40;;;;;;;7.84;53.29;99424.02;106586;1254;60068;-80
2024/04/04 07:24:04;;;;;;;1.40;1.10;;;;;;;7.81;53.21;99431.37;106963;1253;75751;-82
2024/04/04 07:26:31;;;;;;;1.30;1.10;;;;;;;7.78;53.31;99432.75;106914;1256;70646;-79
2024/04/04 07:28:59;;;;;;;1.50;1.10;;;;;;;7.79;53.13;99440.22;106624;1256;72420;-81
2024/04/04 07:31:27;;;;;;;1.60;1.00;;;;;;;7.83;52.86;99443.71;106551;1252;61795;-79
2024/04/04 07:33:54;;;;;;;3.10;1.20;;;;;;;7.88;52.10;99444.54;106485;1253;61947;-78
2024/04/04 07:36:21;;;;;;;1.60;1.10;;;;;;;7.98;52.15;99437.13;106475;1251;76405;-76
2024/04/04 07:38:49;;;;;;;2.40;1.30;;;;;;;8.17;52.07;99441.44;106415;1251;72321;-76
2024/04/04 07:41:17;;;;;;;2.00;1.70;;;;;;;8.33;51.14;99448.41;106564;1254;71692;-77
2024/04/04 07:43:47;;;;;;;1.30;1.00;;;;;;;8.33;50.70;99453.00;106376;1254;61281;-79
2024/04/04 07:46:14;;;;;;;1.40;1.00;;;;;;;8.25;50.93;99451.85;107108;1251;61260;-80
2024/04/04 07:48:42;;;;;;;1.70;1.60;;;;;;;8.23;51.04;99454.66;108388;1251;74953;-81
2024/04/04 07:51:10;;;;;;;1.40;1.30;;;;;;;8.26;50.74;99456.98;108795;1251;71264;-81
2024/04/04 07:53:37;;;;;;;3.00;1.40;;;;;;;8.24;50.63;99457.22;108549;1257;71451;-80
2024/04/04 07:56:05;;;;;;;2.40;1.40;;;;;;;8.20;51.02;99458.75;107917;1251;64090;-81
2024/04/04 07:58:33;;;;;;;2.70;1.30;;;;;;;8.20;51.33;99462.44;108187;1251;59893;-80
2024/04/04 08:01:02;;;;;;;2.60;1.70;;;;;;;8.25;51.64;99465.77;107990;1251;75666;-81
2024/04/04 08:03:36;;;;;;;2.50;1.50;;;;;;;8.29;51.57;99473.11;107834;1254;71114;-82
2024/04/04 08:06:04;;;;;;;1.90;1.60;;;;;;;8.30;51.71;99475.23;108894;1254;73578;-81
2024/04/04 08:08:31;;;;;;;2.30;1.70;;;;;;;8.31;52.09;99489.73;107914;1252;61325;-82
2024/04/04 08:10:59;;;;;;;2.10;1.70;;;;;;;8.35;52.09;99494.48;107078;1259;61784;-82
2024/04/04 08:13:27;;;;;;;2.50;1.40;;;;;;;8.38;51.89;99499.89;106747;1256;76795;-80
2024/04/04 08:15:54;;;;;;;2.50;1.40;;;;;;;8.39;51.91;99498.20;106481;1257;71568;-79
2024/04/04 08:18:22;;;;;;;1.80;1.20;;;;;;;8.36;51.86;99500.29;106448;1253;72791;-78
2024/04/04 08:20:50;;;;;;;2.30;1.80;;;;;;;8.31;51.93;99502.75;106499;1257;61203;-76
2024/04/04 08:23:17;;;;;;;2.10;1.40;;;;;;;8.28;51.88;99511.68;106353;1257;61237;-79
2024/04/04 08:25:54;;;;;;;2.30;1.40;;;;;;;8.21;51.88;99515.23;106469;1256;74633;-76
2024/04/04 08:28:21;;;;;;;2.80;1.40;;;;;;;8.21;52.19;99520.55;106132;1257;72324;-75
2024/04/04 08:31:00;;;;;;;1.90;1.00;;;;;;;8.23;52.05;99515.63;108187;1257;74895;-80
2024/04/04 08:33:28;;;;;;;1.40;1.30;;;;;;;8.27;51.86;99520.11;107619;1254;61685;-80
2024/04/04 08:35:56;;;;;;;1.80;1.40;;;;;;;8.20;51.78;99518.52;108328;1256;61086;-82
2024/04/04 08:38:24;;;;;;;1.50;1.20;;;;;;;8.10;52.24;99520.40;106611;1254;76613;-83
2024/04/04 08:40:55;;;;;;;1.70;1.30;;;;;;;8.10;52.42;99523.30;106663;1256;67797;-83
2024/04/04 08:43:23;;;;;;;2.20;1.40;;;;;;;8.12;52.54;99524.80;106769;1251;74690;-81
2024/04/04 08:45:50;;;;;;;1.80;1.40;;;;;;;8.14;52.42;99521.48;109133;1256;59182;-83
2024/04/04 08:48:19;;;;;;;1.60;1.30;;;;;;;8.21;52.45;99527.09;108616;1254;61213;-82
2024/04/04 08:50:47;;;;;;;1.40;1.30;;;;;;;8.34;52.49;99530.53;107027;1257;74801;-83
2024/04/04 08:53:22;;;;;;;1.60;1.30;;;;;;;8.49;52.30;99523.36;106571;1254;71111;-84
2024/04/04 08:55:54;;;;;;;3.20;1.50;;;;;;;8.72;51.71;99535.61;106643;1251;72933;-84
2024/04/04 08:58:22;;;;;;;1.30;1.20;;;;;;;8.92;51.44;99537.23;106649;1255;62261;-82
2024/04/04 09:00:50;;;;;;;2.30;1.70;;;;;;;9.12;51.01;99536.65;106951;1251;61294;-84
2024/04/04 09:03:18;;;;;;;1.80;1.40;;;;;;;9.31;50.43;99526.16;106689;1260;73022;-84
2024/04/04 09:05:47;;;;;;;1.30;1.20;;;;;;;9.52;50.13;99522.30;106475;1257;69819;-83
2024/04/04 09:08:16;;;;;;;1.90;1.20;;;;;;;9.74;49.33;99524.48;107364;1251;74978;-81
2024/04/04 09:10:51;;;;;;;1.40;1.20;;;;;;;9.90;48.99;99530.59;108104;1251;61280;-84
2024/04/04 09:13:21;;;;;;;2.60;1.30;;;;;;;10.06;48.83;99524.95;108130;1253;61187;-83
2024/04/04 09:15:49;;;;;;;2.70;1.50;;;;;;;10.37;49.10;99521.48;107705;1260;76235;-83
2024/04/04 09:18:17;;;;;;;1.30;1.20;;;;;;;10.94;48.27;99520.04;107111;1256;69489;-84
2024/04/04 09:20:46;;;;;;;1.90;1.60;;;;;;;11.55;47.03;99527.98;107114;1254;74838;-83
2024/04/04 09:23:14;;;;;;;1.30;1.20;;;;;;;12.10;46.71;99531.89;107099;1256;61156;-84
2024/04/04 09:25:42;;;;;;;1.30;1.20;;;;;;;12.81;45.54;99532.73;107129;1251;61209;-82
2024/04/04 09:29:38;;;;;;;1.60;1.30;;;;;;;13.80;43.48;99528.87;104101;1291;616288;-83
2024/04/04 09:32:05;;;;;;;1.70;1.40;;;;;;;14.37;42.88;99530.50;107345;1259;59174;-84
2024/04/04 09:34:32;;;;;;;1.70;1.50;;;;;;;14.90;41.76;99527.52;107587;1257;60049;-86
2024/04/04 09:36:59;;;;;;;1.40;1.30;;;;;;;15.43;41.02;99526.67;106991;1260;72666;-79
2024/04/04 09:39:28;;;;;;;1.80;1.60;;;;;;;15.82;40.34;99531.42;107216;1257;70417;-81
2024/04/04 09:41:55;;;;;;;1.50;1.40;;;;;;;16.22;39.56;99534.30;108314;1250;659568;-81
2024/04/04 09:44:22;;;;;;;1.60;1.50;;;;;;;16.46;39.09;99532.83;108989;1251;61738;-81
2024/04/04 09:46:49;;;;;;;3.80;1.50;;;;;;;16.89;38.87;99535.02;107531;1251;59605;-76
2024/04/04 09:49:16;;;;;;;1.40;1.30;;;;;;;17.44;38.03;99536.41;106718;1251;73470;-77
2024/04/04 09:51:43;;;;;;;1.40;1.30;;;;;;;17.71;36.92;99531.45;106602;1251;69162;-79
2024/04/04 09:54:11;;;;;;;3.20;1.90;;;;;;;17.46;36.99;99539.67;106964;1250;71952;-78
2024/04/04 09:56:40;;;;;;;2.30;1.70;;;;;;;17.20;37.32;99539.10;107656;1251;60598;-77
2024/04/04 09:59:07;;;;;;;1.70;1.60;;;;;;;16.88;37.24;99544.67;107020;1251;60567;-76
2024/04/04 10:01:35;;;;;;;1.90;1.80;;;;;;;16.78;37.81;99536.76;106983;1251;73099;-79
2024/04/04 10:04:02;;;;;;;2.30;1.60;;;;;;;17.11;37.52;99537.96;107166;1250;70256;-82
2024/04/04 10:06:44;;;;;;;2.40;2.20;;;;;;;17.50;36.98;99529.70;107412;1251;71477;-75
2024/04/04 10:09:21;;;;;;;2.60;2.40;;;;;;;17.90;36.30;99531.77;106345;1251;61548;-76
2024/04/04 10:11:49;;;;;;;1.70;1.60;;;;;;;17.94;36.14;99531.83;106451;1250;60345;-77
2024/04/04 10:14:22;;;;;;;2.50;1.70;;;;;;;18.10;35.78;99529.43;107235;1251;73880;-75
2024/04/04 10:16:52;;;;;;;2.40;2.10;;;;;;;18.35;35.69;99532.55;107267;1251;71526;-76
2024/04/04 10:19:23;;;;;;;1.90;1.70;;;;;;;18.42;34.95;99531.06;106760;1251;70509;-77
2024/04/04 10:21:55;;;;;;;2.70;2.50;;;;;;;17.79;35.36;99530.94;106684;1250;61429;-77
2024/04/04 10:24:23;;;;;;;3.00;2.70;;;;;;;17.24;36.26;99532.50;106401;1251;60548;-78
2024/04/04 10:26:54;;;;;;;3.90;3.30;;;;;;;17.33;36.42;99533.35;106362;1254;75027;-78
2024/04/04 10:29:27;;;;;;;2.50;2.20;;;;;;;17.68;36.09;99529.61;106331;1251;70629;-81
2024/04/04 10:32:03;;;;;;;16.50;13.10;;;;;;;17.95;35.52;99527.91;106544;1251;70240;-79
2024/04/04 10:34:30;;;;;;;7.20;6.40;;;;;;;18.27;35.75;99522.63;106826;1254;60389;-81
2024/04/04 10:36:57;;;;;;;2.50;1.90;;;;;;;19.01;34.69;99532.67;108338;1251;61629;-79
2024/04/04 10:39:24;;;;;;;1.60;1.50;;;;;;;19.42;33.76;99528.76;109087;1251;72648;-79
2024/04/04 10:41:52;;;;;;;1.80;1.50;;;;;;;19.56;33.73;99527.42;107576;1251;69535;-79
2024/04/04 10:44:19;;;;;;;1.60;1.50;;;;;;;19.69;33.35;99530.66;106785;1253;72547;-76
2024/04/04 10:46:48;;;;;;;4.90;4.40;;;;;;;19.83;33.39;99524.09;106872;1253;60393;-83
2024/04/04 10:49:16;;;;;;;4.40;3.20;;;;;;;20.21;32.98;99526.19;106904;1252;60551;-77
2024/04/04 10:51:48;;;;;;;2.20;2.00;;;;;;;20.65;32.48;99529.33;106361;1251;73151;-79
2024/04/04 10:54:15;;;;;;;1.80;1.70;;;;;;;20.78;32.03;99529.22;106209;1253;69432;-78
2024/04/04 10:56:42;;;;;;;1.60;1.50;;;;;;;20.74;32.18;99531.72;106173;1251;72959;-76
2024/04/04 10:59:11;;;;;;;1.70;1.60;;;;;;;20.77;31.81;99535.35;106273;1251;60341;-77
2024/04/04 11:01:39;;;;;;;1.50;1.40;;;;;;;20.93;32.01;99531.48;106435;1251;60513;-79
2024/04/04 11:04:09;;;;;;;1.70;1.60;;;;;;;21.27;31.54;99530.55;106311;1253;74199;-83
2024/04/04 11:06:36;;;;;;;2.20;2.00;;;;;;;21.68;31.71;99524.64;106191;1251;70459;-79
2024/04/04 11:09:20;;;;;;;1.60;1.50;;;;;;;22.49;31.05;99520.06;106145;1256;73503;-76
2024/04/04 11:11:49;;;;;;;3.10;1.70;;;;;;;23.20;29.57;99521.33;106406;1252;60789;-79
2024/04/04 11:14:20;;;;;;;2.00;1.80;;;;;;;23.35;29.65;99514.23;106714;1251;60422;-79
2024/04/04 11:16:47;;;;;;;2.80;1.80;;;;;;;23.86;29.44;99513.01;106542;1251;73917;-78
2024/04/04 11:19:15;;;;;;;2.20;1.70;;;;;;;24.53;28.68;99511.27;106322;1253;70608;-76
2024/04/04 11:21:42;;;;;;;2.40;1.70;;;;;;;25.27;27.99;99516.35;106151;1251;70207;-80
2024/04/04 11:24:09;;;;;;;2.00;1.50;;;;;;;25.76;26.96;99516.70;106443;1253;60475;-79
2024/04/04 11:26:36;;;;;;;3.90;1.70;;;;;;;25.79;26.75;99514.45;106419;1251;60438;-79
2024/04/04 11:29:03;;;;;;;1.90;1.60;;;;;;;25.89;26.70;99522.13;106295;1257;72042;-78
2024/04/04 11:31:30;;;;;;;1.50;1.40;;;;;;;25.95;26.72;99517.18;106951;1251;70436;-81
2024/04/04 11:33:57;;;;;;;1.50;1.40;;;;;;;26.20;26.52;99510.59;109140;1251;72438;-80
2024/04/04 11:36:25;;;;;;;2.80;1.50;;;;;;;26.66;26.06;99509.05;108888;1251;60488;-80